sensor_id;sensor_type;location;lat;lon;timestamp;temperature;humidity
11762;DHT22;5938;47.098;15.474;2022-09-09T00:00:26;12.40;99.90
11762;DHT22;5938;47.098;15.474;2022-09-09T00:04:33;12.40;99.90
11762;DHT22;5938;47.098;15.474;2022-09-09T00:08:58;12.40;99.90
11762;DHT22;5938;47.098;15.474;2022-09-09T00:13:20;12.30;99.90
11762;DHT22;5938;47.098;15.474;2022-09-09T00:17:32;12.20;99.90
11762;DHT22;5938;47.098;15.474;2022-09-09T00:21:42;12.10;99.90
11762;DHT22;5938;47.098;15.474;2022-09-09T00:25:52;12.10;99.90
11762;DHT22;5938;47.098;15.474;2022-09-09T00:30:11;12.00;99.90
11762;DHT22;5938;47.098;15.474;2022-09-09T00:34:20;12.00;99.90
11762;DHT22;5938;47.098;15.474;2022-09-09T00:38:28;12.00;99.90
11762;DHT22;5938;47.098;15.474;2022-09-09T00:42:40;11.90;99.90
11762;DHT22;5938;47.098;15.474;2022-09-09T00:46:56;11.90;99.90
11762;DHT22;5938;47.098;15.474;2022-09-09T00:51:09;11.80;99.90
11762;DHT22;5938;47.098;15.474;2022-09-09T00:55:21;11.80;99.90
11762;DHT22;5938;47.098;15.474;2022-09-09T00:59:34;11.70;99.90
11762;DHT22;5938;47.098;15.474;2022-09-09T01:03:45;11.70;99.90
11762;DHT22;5938;47.098;15.474;2022-09-09T01:07:50;11.70;99.90
11762;DHT22;5938;47.098;15.474;2022-09-09T01:12:02;11.70;99.90
11762;DHT22;5938;47.098;15.474;2022-09-09T01:16:12;11.60;99.90
11762;DHT22;5938;47.098;15.474;2022-09-09T01:20:20;11.60;99.90
11762;DHT22;5938;47.098;15.474;2022-09-09T01:24:29;11.50;99.90
11762;DHT22;5938;47.098;15.474;2022-09-09T01:28:39;11.40;99.90
11762;DHT22;5938;47.098;15.474;2022-09-09T01:32:44;11.40;99.90
11762;DHT22;5938;47.098;15.474;2022-09-09T01:36:49;11.30;99.90
11762;DHT22;5938;47.098;15.474;2022-09-09T01:40:55;11.40;99.90
11762;DHT22;5938;47.098;15.474;2022-09-09T01:45:01;11.40;99.90
11762;DHT22;5938;47.098;15.474;2022-09-09T01:49:07;11.30;99.90
11762;DHT22;5938;47.098;15.474;2022-09-09T01:53:13;11.20;99.90
11762;DHT22;5938;47.098;15.474;2022-09-09T01:57:21;11.30;99.90
11762;DHT22;5938;47.098;15.474;2022-09-09T02:01:38;11.30;99.90
11762;DHT22;5938;47.098;15.474;2022-09-09T02:05:51;11.20;99.90
11762;DHT22;5938;47.098;15.474;2022-09-09T02:10:01;11.30;99.90
11762;DHT22;5938;47.098;15.474;2022-09-09T02:14:10;11.40;99.90
11762;DHT22;5938;47.098;15.474;2022-09-09T02:18:18;11.30;99.90
11762;DHT22;5938;47.098;15.474;2022-09-09T02:22:26;11.30;99.90
11762;DHT22;5938;47.098;15.474;2022-09-09T02:26:31;11.30;99.90
11762;DHT22;5938;47.098;15.474;2022-09-09T02:30:37;11.30;99.90
11762;DHT22;5938;47.098;15.474;2022-09-09T02:34:45;11.30;99.90
11762;DHT22;5938;47.098;15.474;2022-09-09T02:38:51;11.30;99.90
11762;DHT22;5938;47.098;15.474;2022-09-09T02:42:55;11.40;99.90
11762;DHT22;5938;47.098;15.474;2022-09-09T02:47:13;11.40;99.90
11762;DHT22;5938;47.098;15.474;2022-09-09T02:51:24;11.50;99.90
11762;DHT22;5938;47.098;15.474;2022-09-09T02:55:38;11.50;99.90
11762;DHT22;5938;47.098;15.474;2022-09-09T02:59:43;11.60;99.90
11762;DHT22;5938;47.098;15.474;2022-09-09T03:03:46;11.70;99.90
11762;DHT22;5938;47.098;15.474;2022-09-09T03:07:51;11.80;99.90
11762;DHT22;5938;47.098;15.474;2022-09-09T03:11:54;11.80;99.90
11762;DHT22;5938;47.098;15.474;2022-09-09T03:15:58;11.90;99.90
11762;DHT22;5938;47.098;15.474;2022-09-09T03:20:02;12.00;99.90
11762;DHT22;5938;47.098;15.474;2022-09-09T03:24:07;12.00;99.90
11762;DHT22;5938;47.098;15.474;2022-09-09T03:28:11;12.10;99.90
11762;DHT22;5938;47.098;15.474;2022-09-09T03:32:14;12.00;99.90
11762;DHT22;5938;47.098;15.474;2022-09-09T03:36:19;12.10;99.90
11762;DHT22;5938;47.098;15.474;2022-09-09T03:40:24;12.10;99.90
11762;DHT22;5938;47.098;15.474;2022-09-09T03:44:28;12.00;99.90
11762;DHT22;5938;47.098;15.474;2022-09-09T03:48:31;12.00;99.90
11762;DHT22;5938;47.098;15.474;2022-09-09T03:52:35;11.90;99.90
11762;DHT22;5938;47.098;15.474;2022-09-09T03:56:39;11.80;99.90
11762;DHT22;5938;47.098;15.474;2022-09-09T04:00:43;11.70;99.90
11762;DHT22;5938;47.098;15.474;2022-09-09T04:04:47;11.60;99.90
11762;DHT22;5938;47.098;15.474;2022-09-09T04:08:50;11.50;99.90
11762;DHT22;5938;47.098;15.474;2022-09-09T04:12:55;11.50;99.90
11762;DHT22;5938;47.098;15.474;2022-09-09T04:16:59;11.50;99.90
11762;DHT22;5938;47.098;15.474;2022-09-09T04:21:02;11.50;99.90
11762;DHT22;5938;47.098;15.474;2022-09-09T04:25:08;11.50;99.90
11762;DHT22;5938;47.098;15.474;2022-09-09T04:29:12;11.40;99.90
11762;DHT22;5938;47.098;15.474;2022-09-09T04:33:16;11.40;99.90
11762;DHT22;5938;47.098;15.474;2022-09-09T04:37:20;11.40;99.90
11762;DHT22;5938;47.098;15.474;2022-09-09T04:41:23;11.50;99.90
11762;DHT22;5938;47.098;15.474;2022-09-09T04:45:28;11.60;99.90
11762;DHT22;5938;47.098;15.474;2022-09-09T04:49:32;11.70;99.90
11762;DHT22;5938;47.098;15.474;2022-09-09T04:53:35;11.70;99.90
11762;DHT22;5938;47.098;15.474;2022-09-09T04:57:40;11.90;99.90
11762;DHT22;5938;47.098;15.474;2022-09-09T05:01:46;11.90;99.90
11762;DHT22;5938;47.098;15.474;2022-09-09T05:05:50;12.00;99.90
11762;DHT22;5938;47.098;15.474;2022-09-09T05:09:53;12.00;99.90
11762;DHT22;5938;47.098;15.474;2022-09-09T05:13:56;12.10;99.90
11762;DHT22;5938;47.098;15.474;2022-09-09T05:18:01;12.20;99.90
11762;DHT22;5938;47.098;15.474;2022-09-09T05:22:05;12.30;99.90
11762;DHT22;5938;47.098;15.474;2022-09-09T05:26:12;12.40;99.90
11762;DHT22;5938;47.098;15.474;2022-09-09T05:30:18;12.50;99.90
11762;DHT22;5938;47.098;15.474;2022-09-09T05:34:23;12.70;99.90
11762;DHT22;5938;47.098;15.474;2022-09-09T05:38:27;12.70;99.90
11762;DHT22;5938;47.098;15.474;2022-09-09T05:42:31;12.90;99.90
11762;DHT22;5938;47.098;15.474;2022-09-09T05:46:34;13.00;99.90
11762;DHT22;5938;47.098;15.474;2022-09-09T05:50:39;13.10;99.90
11762;DHT22;5938;47.098;15.474;2022-09-09T05:54:42;13.30;99.90
11762;DHT22;5938;47.098;15.474;2022-09-09T05:58:46;13.40;99.90
11762;DHT22;5938;47.098;15.474;2022-09-09T06:02:51;13.50;99.90
11762;DHT22;5938;47.098;15.474;2022-09-09T06:06:56;13.70;99.90
11762;DHT22;5938;47.098;15.474;2022-09-09T06:11:01;14.10;99.90
11762;DHT22;5938;47.098;15.474;2022-09-09T06:15:06;14.40;99.90
11762;DHT22;5938;47.098;15.474;2022-09-09T06:19:10;14.70;99.90
11762;DHT22;5938;47.098;15.474;2022-09-09T06:23:16;14.90;99.90
11762;DHT22;5938;47.098;15.474;2022-09-09T06:27:19;14.90;99.90
11762;DHT22;5938;47.098;15.474;2022-09-09T06:31:25;15.10;99.90
11762;DHT22;5938;47.098;15.474;2022-09-09T06:35:32;15.30;99.90
11762;DHT22;5938;47.098;15.474;2022-09-09T06:39:36;15.70;99.90
11762;DHT22;5938;47.098;15.474;2022-09-09T06:43:40;15.90;99.90
11762;DHT22;5938;47.098;15.474;2022-09-09T06:47:43;16.30;99.90
11762;DHT22;5938;47.098;15.474;2022-09-09T06:51:46;16.70;99.90
11762;DHT22;5938;47.098;15.474;2022-09-09T06:55:52;17.10;99.90
11762;DHT22;5938;47.098;15.474;2022-09-09T06:59:56;17.30;99.90
11762;DHT22;5938;47.098;15.474;2022-09-09T07:04:01;17.50;99.90
11762;DHT22;5938;47.098;15.474;2022-09-09T07:08:05;17.70;99.90
11762;DHT22;5938;47.098;15.474;2022-09-09T07:12:10;18.00;99.90
11762;DHT22;5938;47.098;15.474;2022-09-09T07:16:17;18.10;99.90
11762;DHT22;5938;47.098;15.474;2022-09-09T07:20:21;18.00;99.90
11762;DHT22;5938;47.098;15.474;2022-09-09T07:24:24;17.90;99.90
11762;DHT22;5938;47.098;15.474;2022-09-09T07:28:33;17.90;99.90
11762;DHT22;5938;47.098;15.474;2022-09-09T07:32:37;17.80;99.90
11762;DHT22;5938;47.098;15.474;2022-09-09T07:36:41;17.80;99.90
11762;DHT22;5938;47.098;15.474;2022-09-09T07:40:45;17.70;99.90
11762;DHT22;5938;47.098;15.474;2022-09-09T07:44:49;17.60;99.90
11762;DHT22;5938;47.098;15.474;2022-09-09T07:48:57;17.70;99.90
11762;DHT22;5938;47.098;15.474;2022-09-09T07:53:00;17.70;99.90
11762;DHT22;5938;47.098;15.474;2022-09-09T07:57:04;17.80;99.90
11762;DHT22;5938;47.098;15.474;2022-09-09T08:01:10;17.90;99.90
11762;DHT22;5938;47.098;15.474;2022-09-09T08:05:14;18.00;99.90
11762;DHT22;5938;47.098;15.474;2022-09-09T08:09:19;17.90;99.90
11762;DHT22;5938;47.098;15.474;2022-09-09T08:13:22;17.80;99.90
11762;DHT22;5938;47.098;15.474;2022-09-09T08:17:27;17.70;99.90
11762;DHT22;5938;47.098;15.474;2022-09-09T08:21:31;17.90;99.90
11762;DHT22;5938;47.098;15.474;2022-09-09T08:25:35;18.00;99.90
11762;DHT22;5938;47.098;15.474;2022-09-09T08:29:38;18.20;99.90
11762;DHT22;5938;47.098;15.474;2022-09-09T08:33:43;18.40;99.90
11762;DHT22;5938;47.098;15.474;2022-09-09T08:37:47;18.50;99.90
11762;DHT22;5938;47.098;15.474;2022-09-09T08:46:30;18.90;99.90
11762;DHT22;5938;47.098;15.474;2022-09-09T08:50:38;18.60;99.90
11762;DHT22;5938;47.098;15.474;2022-09-09T08:54:43;18.50;99.90
11762;DHT22;5938;47.098;15.474;2022-09-09T08:58:54;18.60;99.90
11762;DHT22;5938;47.098;15.474;2022-09-09T09:03:06;18.70;99.90
11762;DHT22;5938;47.098;15.474;2022-09-09T09:07:24;18.70;99.90
11762;DHT22;5938;47.098;15.474;2022-09-09T09:11:38;18.90;99.90
11762;DHT22;5938;47.098;15.474;2022-09-09T09:15:44;19.30;99.90
11762;DHT22;5938;47.098;15.474;2022-09-09T09:19:49;19.60;99.90
11762;DHT22;5938;47.098;15.474;2022-09-09T09:23:57;20.30;99.90
11762;DHT22;5938;47.098;15.474;2022-09-09T09:28:03;20.90;99.90
11762;DHT22;5938;47.098;15.474;2022-09-09T09:32:10;21.00;99.80
11762;DHT22;5938;47.098;15.474;2022-09-09T09:36:15;21.30;98.40
11762;DHT22;5938;47.098;15.474;2022-09-09T09:40:21;21.90;97.60
11762;DHT22;5938;47.098;15.474;2022-09-09T09:44:27;24.50;93.90
11762;DHT22;5938;47.098;15.474;2022-09-09T09:48:30;24.80;91.90
11762;DHT22;5938;47.098;15.474;2022-09-09T09:52:34;23.90;92.50
11762;DHT22;5938;47.098;15.474;2022-09-09T09:56:40;23.10;93.50
11762;DHT22;5938;47.098;15.474;2022-09-09T10:00:48;22.90;93.10
11762;DHT22;5938;47.098;15.474;2022-09-09T10:05:01;23.00;92.80
11762;DHT22;5938;47.098;15.474;2022-09-09T10:09:21;23.40;92.30
11762;DHT22;5938;47.098;15.474;2022-09-09T10:13:30;24.70;91.30
11762;DHT22;5938;47.098;15.474;2022-09-09T10:17:52;25.20;89.90
11762;DHT22;5938;47.098;15.474;2022-09-09T10:22:03;26.40;87.70
11762;DHT22;5938;47.098;15.474;2022-09-09T10:26:20;26.40;86.40
11762;DHT22;5938;47.098;15.474;2022-09-09T10:30:36;25.70;88.30
11762;DHT22;5938;47.098;15.474;2022-09-09T10:34:55;26.00;88.40
11762;DHT22;5938;47.098;15.474;2022-09-09T10:39:03;27.20;84.00
11762;DHT22;5938;47.098;15.474;2022-09-09T10:43:16;26.30;83.90
11762;DHT22;5938;47.098;15.474;2022-09-09T10:47:35;25.40;88.00
11762;DHT22;5938;47.098;15.474;2022-09-09T10:51:48;26.60;84.50
11762;DHT22;5938;47.098;15.474;2022-09-09T10:55:59;26.30;83.20
11762;DHT22;5938;47.098;15.474;2022-09-09T11:00:06;25.50;86.70
11762;DHT22;5938;47.098;15.474;2022-09-09T11:04:22;24.90;86.30
11762;DHT22;5938;47.098;15.474;2022-09-09T11:08:28;24.20;89.50
11762;DHT22;5938;47.098;15.474;2022-09-09T11:12:36;23.70;90.50
11762;DHT22;5938;47.098;15.474;2022-09-09T11:16:46;23.40;91.20
11762;DHT22;5938;47.098;15.474;2022-09-09T11:20:56;23.10;93.10
11762;DHT22;5938;47.098;15.474;2022-09-09T11:25:05;22.50;91.50
11762;DHT22;5938;47.098;15.474;2022-09-09T11:34:02;22.20;94.70
11762;DHT22;5938;47.098;15.474;2022-09-09T11:38:25;22.00;95.80
11762;DHT22;5938;47.098;15.474;2022-09-09T11:42:28;22.00;96.00
11762;DHT22;5938;47.098;15.474;2022-09-09T11:46:34;21.60;96.00
11762;DHT22;5938;47.098;15.474;2022-09-09T11:50:40;21.60;96.00
11762;DHT22;5938;47.098;15.474;2022-09-09T11:54:49;21.40;96.60
11762;DHT22;5938;47.098;15.474;2022-09-09T11:59:00;21.90;96.70
11762;DHT22;5938;47.098;15.474;2022-09-09T12:03:06;22.30;94.80
11762;DHT22;5938;47.098;15.474;2022-09-09T12:07:27;22.60;94.20
11762;DHT22;5938;47.098;15.474;2022-09-09T12:11:33;23.00;93.90
11762;DHT22;5938;47.098;15.474;2022-09-09T12:15:46;23.20;93.00
11762;DHT22;5938;47.098;15.474;2022-09-09T12:20:01;23.40;92.70
11762;DHT22;5938;47.098;15.474;2022-09-09T12:24:11;23.40;92.50
11762;DHT22;5938;47.098;15.474;2022-09-09T12:28:18;22.90;93.60
11762;DHT22;5938;47.098;15.474;2022-09-09T12:32:24;22.80;91.70
11762;DHT22;5938;47.098;15.474;2022-09-09T12:36:29;22.90;92.30
11762;DHT22;5938;47.098;15.474;2022-09-09T12:40:35;23.20;92.20
11762;DHT22;5938;47.098;15.474;2022-09-09T12:44:51;22.80;92.00
11762;DHT22;5938;47.098;15.474;2022-09-09T12:48:54;23.00;92.10
11762;DHT22;5938;47.098;15.474;2022-09-09T12:52:59;23.20;92.20
11762;DHT22;5938;47.098;15.474;2022-09-09T12:57:04;23.20;91.50
11762;DHT22;5938;47.098;15.474;2022-09-09T13:01:21;22.60;92.70
11762;DHT22;5938;47.098;15.474;2022-09-09T13:05:27;22.40;93.00
11762;DHT22;5938;47.098;15.474;2022-09-09T13:09:30;22.20;93.00
11762;DHT22;5938;47.098;15.474;2022-09-09T13:13:36;21.90;94.10
11762;DHT22;5938;47.098;15.474;2022-09-09T13:17:41;21.90;93.90
11762;DHT22;5938;47.098;15.474;2022-09-09T13:21:44;22.00;95.00
11762;DHT22;5938;47.098;15.474;2022-09-09T13:25:55;21.80;93.90
11762;DHT22;5938;47.098;15.474;2022-09-09T13:29:58;21.50;96.00
11762;DHT22;5938;47.098;15.474;2022-09-09T13:34:12;21.40;96.00
11762;DHT22;5938;47.098;15.474;2022-09-09T13:38:16;21.40;97.50
11762;DHT22;5938;47.098;15.474;2022-09-09T13:42:25;21.20;96.90
11762;DHT22;5938;47.098;15.474;2022-09-09T13:46:32;20.70;96.80
11762;DHT22;5938;47.098;15.474;2022-09-09T13:50:37;20.40;99.90
11762;DHT22;5938;47.098;15.474;2022-09-09T13:54:41;20.20;99.90
11762;DHT22;5938;47.098;15.474;2022-09-09T13:58:44;19.90;99.90
11762;DHT22;5938;47.098;15.474;2022-09-09T14:02:48;19.70;99.90
11762;DHT22;5938;47.098;15.474;2022-09-09T14:06:53;19.50;99.90
11762;DHT22;5938;47.098;15.474;2022-09-09T14:10:57;19.30;99.90
11762;DHT22;5938;47.098;15.474;2022-09-09T14:15:01;19.20;99.90
11762;DHT22;5938;47.098;15.474;2022-09-09T14:19:04;19.10;99.90
11762;DHT22;5938;47.098;15.474;2022-09-09T14:23:11;18.90;99.90
11762;DHT22;5938;47.098;15.474;2022-09-09T14:27:15;18.90;99.90
11762;DHT22;5938;47.098;15.474;2022-09-09T14:31:18;18.90;99.90
11762;DHT22;5938;47.098;15.474;2022-09-09T14:35:23;18.80;99.90
11762;DHT22;5938;47.098;15.474;2022-09-09T14:39:28;18.70;99.90
11762;DHT22;5938;47.098;15.474;2022-09-09T14:43:31;18.60;99.90
11762;DHT22;5938;47.098;15.474;2022-09-09T14:47:34;18.50;99.90
11762;DHT22;5938;47.098;15.474;2022-09-09T14:51:39;18.40;99.90
11762;DHT22;5938;47.098;15.474;2022-09-09T14:55:44;18.20;99.90
11762;DHT22;5938;47.098;15.474;2022-09-09T14:59:48;18.10;99.90
11762;DHT22;5938;47.098;15.474;2022-09-09T15:03:54;18.10;99.90
11762;DHT22;5938;47.098;15.474;2022-09-09T15:07:57;18.10;99.90
11762;DHT22;5938;47.098;15.474;2022-09-09T15:12:03;18.10;99.90
11762;DHT22;5938;47.098;15.474;2022-09-09T15:16:08;18.00;99.90
11762;DHT22;5938;47.098;15.474;2022-09-09T15:20:11;18.00;99.90
11762;DHT22;5938;47.098;15.474;2022-09-09T15:24:15;18.00;99.90
11762;DHT22;5938;47.098;15.474;2022-09-09T15:28:20;18.10;99.90
11762;DHT22;5938;47.098;15.474;2022-09-09T15:32:24;18.00;99.90
11762;DHT22;5938;47.098;15.474;2022-09-09T15:36:29;18.00;99.90
11762;DHT22;5938;47.098;15.474;2022-09-09T15:40:33;17.90;99.90
11762;DHT22;5938;47.098;15.474;2022-09-09T15:44:40;17.80;99.90
11762;DHT22;5938;47.098;15.474;2022-09-09T15:48:44;17.60;99.90
11762;DHT22;5938;47.098;15.474;2022-09-09T15:52:52;17.50;99.90
11762;DHT22;5938;47.098;15.474;2022-09-09T15:56:56;17.40;99.90
11762;DHT22;5938;47.098;15.474;2022-09-09T16:01:03;17.20;99.90
11762;DHT22;5938;47.098;15.474;2022-09-09T16:05:07;17.20;99.90
11762;DHT22;5938;47.098;15.474;2022-09-09T16:09:11;17.40;99.90
11762;DHT22;5938;47.098;15.474;2022-09-09T16:13:14;17.50;99.90
11762;DHT22;5938;47.098;15.474;2022-09-09T16:17:18;17.60;99.90
11762;DHT22;5938;47.098;15.474;2022-09-09T16:21:24;17.70;99.90
11762;DHT22;5938;47.098;15.474;2022-09-09T16:25:27;17.70;99.90
11762;DHT22;5938;47.098;15.474;2022-09-09T16:29:30;17.70;99.90
11762;DHT22;5938;47.098;15.474;2022-09-09T16:33:47;17.60;99.90
11762;DHT22;5938;47.098;15.474;2022-09-09T16:37:52;17.60;99.90
11762;DHT22;5938;47.098;15.474;2022-09-09T16:41:55;17.60;99.90
11762;DHT22;5938;47.098;15.474;2022-09-09T16:45:59;17.50;99.90
11762;DHT22;5938;47.098;15.474;2022-09-09T16:50:05;17.30;99.90
11762;DHT22;5938;47.098;15.474;2022-09-09T16:54:10;17.20;99.90
11762;DHT22;5938;47.098;15.474;2022-09-09T16:58:18;17.10;99.90
11762;DHT22;5938;47.098;15.474;2022-09-09T17:02:22;17.10;99.90
11762;DHT22;5938;47.098;15.474;2022-09-09T17:06:30;17.00;99.90
11762;DHT22;5938;47.098;15.474;2022-09-09T17:10:34;17.00;99.90
11762;DHT22;5938;47.098;15.474;2022-09-09T17:14:42;16.90;99.90
11762;DHT22;5938;47.098;15.474;2022-09-09T17:18:47;16.90;99.90
11762;DHT22;5938;47.098;15.474;2022-09-09T17:22:52;16.90;99.90
11762;DHT22;5938;47.098;15.474;2022-09-09T17:26:56;16.80;99.90
11762;DHT22;5938;47.098;15.474;2022-09-09T17:31:00;16.80;99.90
11762;DHT22;5938;47.098;15.474;2022-09-09T17:35:05;16.70;99.90
11762;DHT22;5938;47.098;15.474;2022-09-09T17:39:10;16.70;99.90
11762;DHT22;5938;47.098;15.474;2022-09-09T17:43:13;16.70;99.90
11762;DHT22;5938;47.098;15.474;2022-09-09T17:47:17;16.60;99.90
11762;DHT22;5938;47.098;15.474;2022-09-09T17:51:24;16.50;99.90
11762;DHT22;5938;47.098;15.474;2022-09-09T17:55:33;16.40;99.90
11762;DHT22;5938;47.098;15.474;2022-09-09T17:59:40;16.40;99.90
11762;DHT22;5938;47.098;15.474;2022-09-09T18:03:45;16.40;99.90
11762;DHT22;5938;47.098;15.474;2022-09-09T18:07:51;16.40;99.90
11762;DHT22;5938;47.098;15.474;2022-09-09T18:12:00;16.40;99.90
11762;DHT22;5938;47.098;15.474;2022-09-09T18:16:06;16.40;99.90
11762;DHT22;5938;47.098;15.474;2022-09-09T18:20:13;16.40;99.90
11762;DHT22;5938;47.098;15.474;2022-09-09T18:24:21;16.50;99.90
11762;DHT22;5938;47.098;15.474;2022-09-09T18:28:26;16.50;99.90
11762;DHT22;5938;47.098;15.474;2022-09-09T18:32:30;16.50;99.90
11762;DHT22;5938;47.098;15.474;2022-09-09T18:36:35;16.50;99.90
11762;DHT22;5938;47.098;15.474;2022-09-09T18:40:39;16.50;99.90
11762;DHT22;5938;47.098;15.474;2022-09-09T18:44:44;16.40;99.90
11762;DHT22;5938;47.098;15.474;2022-09-09T18:48:50;16.30;99.90
11762;DHT22;5938;47.098;15.474;2022-09-09T18:52:57;16.20;99.90
11762;DHT22;5938;47.098;15.474;2022-09-09T18:57:00;16.10;99.90
11762;DHT22;5938;47.098;15.474;2022-09-09T19:01:09;16.00;99.90
11762;DHT22;5938;47.098;15.474;2022-09-09T19:05:14;15.90;99.90
11762;DHT22;5938;47.098;15.474;2022-09-09T19:09:18;15.80;99.90
11762;DHT22;5938;47.098;15.474;2022-09-09T19:13:22;16.00;99.90
11762;DHT22;5938;47.098;15.474;2022-09-09T19:17:30;15.90;99.90
11762;DHT22;5938;47.098;15.474;2022-09-09T19:21:40;15.90;99.90
11762;DHT22;5938;47.098;15.474;2022-09-09T19:25:50;15.90;99.90
11762;DHT22;5938;47.098;15.474;2022-09-09T19:29:55;15.90;99.90
11762;DHT22;5938;47.098;15.474;2022-09-09T19:34:06;15.80;99.90
11762;DHT22;5938;47.098;15.474;2022-09-09T19:38:18;15.90;99.90
11762;DHT22;5938;47.098;15.474;2022-09-09T19:42:22;16.00;99.90
11762;DHT22;5938;47.098;15.474;2022-09-09T19:46:30;16.00;99.90
11762;DHT22;5938;47.098;15.474;2022-09-09T19:50:42;15.90;99.90
11762;DHT22;5938;47.098;15.474;2022-09-09T19:54:45;15.70;99.90
11762;DHT22;5938;47.098;15.474;2022-09-09T19:58:49;15.70;99.90
11762;DHT22;5938;47.098;15.474;2022-09-09T20:02:53;15.60;99.90
11762;DHT22;5938;47.098;15.474;2022-09-09T20:07:17;15.50;99.90
11762;DHT22;5938;47.098;15.474;2022-09-09T20:11:24;15.60;99.90
11762;DHT22;5938;47.098;15.474;2022-09-09T20:15:28;15.60;99.90
11762;DHT22;5938;47.098;15.474;2022-09-09T20:19:33;15.60;99.90
11762;DHT22;5938;47.098;15.474;2022-09-09T20:23:49;15.60;99.90
11762;DHT22;5938;47.098;15.474;2022-09-09T20:27:59;15.50;99.90
11762;DHT22;5938;47.098;15.474;2022-09-09T20:32:02;15.50;99.90
11762;DHT22;5938;47.098;15.474;2022-09-09T20:36:13;15.40;99.90
11762;DHT22;5938;47.098;15.474;2022-09-09T20:40:17;15.40;99.90
11762;DHT22;5938;47.098;15.474;2022-09-09T20:44:22;15.40;99.90
11762;DHT22;5938;47.098;15.474;2022-09-09T20:48:26;15.40;99.90
11762;DHT22;5938;47.098;15.474;2022-09-09T20:52:35;15.40;99.90
11762;DHT22;5938;47.098;15.474;2022-09-09T20:56:42;15.40;99.90
11762;DHT22;5938;47.098;15.474;2022-09-09T21:00:46;15.30;99.90
11762;DHT22;5938;47.098;15.474;2022-09-09T21:04:49;15.20;99.90
11762;DHT22;5938;47.098;15.474;2022-09-09T21:08:53;15.20;99.90
11762;DHT22;5938;47.098;15.474;2022-09-09T21:12:57;15.20;99.90
11762;DHT22;5938;47.098;15.474;2022-09-09T21:17:02;15.20;99.90
11762;DHT22;5938;47.098;15.474;2022-09-09T21:21:06;15.10;99.90
11762;DHT22;5938;47.098;15.474;2022-09-09T21:25:10;15.10;99.90
11762;DHT22;5938;47.098;15.474;2022-09-09T21:29:15;15.10;99.90
11762;DHT22;5938;47.098;15.474;2022-09-09T21:33:22;15.20;99.90
11762;DHT22;5938;47.098;15.474;2022-09-09T21:37:25;15.00;99.90
11762;DHT22;5938;47.098;15.474;2022-09-09T21:41:29;15.00;99.90
11762;DHT22;5938;47.098;15.474;2022-09-09T21:45:35;14.90;99.90
11762;DHT22;5938;47.098;15.474;2022-09-09T21:49:38;14.90;99.90
11762;DHT22;5938;47.098;15.474;2022-09-09T21:53:42;14.90;99.90
11762;DHT22;5938;47.098;15.474;2022-09-09T21:57:45;14.90;99.90
11762;DHT22;5938;47.098;15.474;2022-09-09T22:01:50;14.90;99.90
11762;DHT22;5938;47.098;15.474;2022-09-09T22:05:54;15.00;99.90
11762;DHT22;5938;47.098;15.474;2022-09-09T22:10:00;14.90;99.90
11762;DHT22;5938;47.098;15.474;2022-09-09T22:14:04;14.90;99.90
11762;DHT22;5938;47.098;15.474;2022-09-09T22:18:09;14.80;99.90
11762;DHT22;5938;47.098;15.474;2022-09-09T22:22:12;14.80;99.90
11762;DHT22;5938;47.098;15.474;2022-09-09T22:26:16;14.80;99.90
11762;DHT22;5938;47.098;15.474;2022-09-09T22:30:19;14.80;99.90
11762;DHT22;5938;47.098;15.474;2022-09-09T22:34:24;14.80;99.90
11762;DHT22;5938;47.098;15.474;2022-09-09T22:38:36;14.80;99.90
11762;DHT22;5938;47.098;15.474;2022-09-09T22:42:40;14.80;99.90
11762;DHT22;5938;47.098;15.474;2022-09-09T22:46:43;14.90;99.90
11762;DHT22;5938;47.098;15.474;2022-09-09T22:50:49;14.80;99.90
11762;DHT22;5938;47.098;15.474;2022-09-09T22:54:52;14.70;99.90
11762;DHT22;5938;47.098;15.474;2022-09-09T22:58:56;14.70;99.90
11762;DHT22;5938;47.098;15.474;2022-09-09T23:03:00;14.70;99.90
11762;DHT22;5938;47.098;15.474;2022-09-09T23:07:06;14.60;99.90
11762;DHT22;5938;47.098;15.474;2022-09-09T23:11:11;14.70;99.90
11762;DHT22;5938;47.098;15.474;2022-09-09T23:15:15;14.70;99.90
11762;DHT22;5938;47.098;15.474;2022-09-09T23:19:18;14.60;99.90
11762;DHT22;5938;47.098;15.474;2022-09-09T23:23:26;14.60;99.90
11762;DHT22;5938;47.098;15.474;2022-09-09T23:27:30;14.60;99.90
11762;DHT22;5938;47.098;15.474;2022-09-09T23:31:34;14.60;99.90
11762;DHT22;5938;47.098;15.474;2022-09-09T23:35:38;14.70;99.90
11762;DHT22;5938;47.098;15.474;2022-09-09T23:39:45;14.60;99.90
11762;DHT22;5938;47.098;15.474;2022-09-09T23:43:49;14.60;99.90
11762;DHT22;5938;47.098;15.474;2022-09-09T23:47:53;14.70;99.90
11762;DHT22;5938;47.098;15.474;2022-09-09T23:51:56;14.60;99.90
11762;DHT22;5938;47.098;15.474;2022-09-09T23:56:03;14.50;99.90
